createdAt,value
2022-11-21T00:01:55.169Z,25.93
2022-11-21T00:04:22.630Z,31.57
2022-11-21T00:06:51.819Z,28.33
2022-11-21T00:09:19.260Z,32.30
2022-11-21T00:11:46.863Z,28.27
2022-11-21T00:14:14.214Z,26.53
2022-11-21T00:16:41.824Z,25.10
2022-11-21T00:19:09.577Z,25.77
2022-11-21T00:21:36.845Z,24.53
2022-11-21T00:24:04.409Z,28.43
2022-11-21T00:26:31.964Z,28.63
2022-11-21T00:28:59.427Z,28.27
2022-11-21T00:31:26.591Z,24.80
2022-11-21T00:33:53.989Z,27.43
2022-11-21T00:36:21.408Z,29.03
2022-11-21T00:38:48.902Z,32.70
2022-11-21T00:41:16.464Z,29.23
2022-11-21T00:43:43.901Z,28.67
2022-11-21T00:46:11.246Z,31.67
2022-11-21T00:48:38.686Z,27.70
2022-11-21T00:51:06.086Z,30.60
2022-11-21T00:53:33.073Z,27.43
2022-11-21T00:56:00.431Z,30.60
2022-11-21T00:58:28.529Z,28.27
2022-11-21T01:01:14.718Z,30.43
2022-11-21T01:03:42.564Z,32.30
2022-11-21T01:06:11.941Z,33.07
2022-11-21T01:08:42.540Z,37.80
2022-11-21T01:11:13.202Z,33.60
2022-11-21T01:13:41.200Z,30.90
2022-11-21T01:16:28.204Z,31.13
2022-11-21T01:18:55.934Z,33.43
2022-11-21T01:21:28.825Z,29.87
2022-11-21T01:23:58.584Z,30.30
2022-11-21T01:26:27.851Z,28.50
2022-11-21T01:28:55.505Z,27.70
2022-11-21T01:31:28.193Z,32.13
2022-11-21T01:33:57.227Z,27.13
2022-11-21T01:36:24.650Z,30.10
2022-11-21T01:38:54.088Z,29.27
2022-11-21T01:41:35.538Z,27.43
2022-11-21T01:44:10.017Z,26.63
2022-11-21T01:46:37.842Z,27.97
2022-11-21T01:49:12.346Z,29.30
2022-11-21T01:51:53.956Z,34.87
2022-11-21T01:54:24.500Z,29.90
2022-11-21T01:57:06.890Z,29.90
2022-11-21T02:00:07.453Z,25.33
2022-11-21T02:02:41.814Z,30.33
2022-11-21T02:05:13.438Z,30.33
2022-11-21T02:07:43.121Z,30.00
2022-11-21T02:10:11.087Z,26.63
2022-11-21T02:12:50.830Z,27.77
2022-11-21T02:15:19.335Z,25.30
2022-11-21T02:17:46.692Z,29.20
2022-11-21T02:20:16.855Z,26.43
2022-11-21T02:23:13.863Z,33.90
2022-11-21T02:25:42.557Z,27.23
2022-11-21T02:28:13.901Z,33.20
2022-11-21T02:30:42.505Z,28.17
2022-11-21T02:33:11.150Z,30.00
2022-11-21T02:35:38.645Z,30.03
2022-11-21T02:38:11.897Z,32.30
2022-11-21T02:40:44.109Z,32.33
2022-11-21T02:43:19.762Z,28.87
2022-11-21T02:45:47.127Z,30.73
2022-11-21T02:48:14.913Z,28.67
2022-11-21T02:50:44.979Z,33.63
2022-11-21T02:53:17.453Z,24.77
2022-11-21T02:55:44.995Z,35.10
2022-11-21T02:58:12.780Z,31.23
2022-11-21T03:00:41.593Z,27.47
2022-11-21T03:03:09.280Z,30.27
2022-11-21T03:05:37.143Z,27.80
2022-11-21T03:08:06.336Z,28.17
2022-11-21T03:10:33.780Z,28.03
2022-11-21T03:13:01.707Z,33.63
2022-11-21T03:15:30.943Z,30.43
2022-11-21T03:17:58.433Z,30.07
2022-11-21T03:20:26.019Z,30.03
2022-11-21T03:22:53.668Z,30.00
2022-11-21T03:25:21.183Z,34.93
2022-11-21T03:27:52.386Z,29.47
2022-11-21T03:30:20.982Z,31.23
2022-11-21T03:32:48.438Z,34.47
2022-11-21T03:35:15.983Z,31.83
2022-11-21T03:37:43.410Z,29.47
2022-11-21T03:40:11.700Z,31.67
2022-11-21T03:42:39.174Z,28.67
2022-11-21T03:45:06.879Z,30.80
2022-11-21T03:47:34.393Z,32.37
2022-11-21T03:50:01.859Z,29.80
2022-11-21T03:52:29.276Z,33.13
2022-11-21T03:54:56.669Z,34.90
2022-11-21T03:57:24.018Z,30.83
2022-11-21T03:59:51.469Z,36.90
2022-11-21T04:02:18.832Z,35.17
2022-11-21T04:04:46.220Z,32.07
2022-11-21T04:07:13.601Z,36.07
2022-11-21T04:09:40.670Z,29.70
2022-11-21T04:12:08.189Z,36.30
2022-11-21T04:14:35.635Z,32.33
2022-11-21T04:17:03.038Z,34.23
2022-11-21T04:19:30.429Z,31.53
2022-11-21T04:21:57.801Z,32.97
2022-11-21T04:24:25.372Z,34.37
2022-11-21T04:26:55.370Z,38.37
2022-11-21T04:29:22.776Z,40.57
2022-11-21T04:31:50.175Z,32.90
2022-11-21T04:34:17.560Z,32.47
2022-11-21T04:36:44.969Z,36.63
2022-11-21T04:39:12.405Z,34.60
2022-11-21T04:41:39.808Z,31.67
2022-11-21T04:44:07.344Z,34.73
2022-11-21T04:46:34.826Z,33.97
2022-11-21T04:49:02.301Z,34.33
2022-11-21T04:51:29.742Z,40.10
2022-11-21T04:53:57.103Z,35.07
2022-11-21T04:56:24.535Z,30.53
2022-11-21T04:58:52.990Z,37.93
2022-11-21T05:01:20.466Z,41.67
2022-11-21T05:03:47.997Z,40.30
2022-11-21T05:06:15.413Z,36.57
2022-11-21T05:08:43.548Z,51.30
2022-11-21T05:11:31.784Z,44.97
2022-11-21T05:13:59.157Z,38.10
2022-11-21T05:16:26.193Z,35.13
2022-11-21T05:18:53.563Z,32.63
2022-11-21T05:21:20.935Z,40.33
2022-11-21T05:23:48.294Z,36.57
2022-11-21T05:26:15.667Z,41.70
2022-11-21T05:28:43.036Z,38.90
2022-11-21T05:31:10.568Z,33.77
2022-11-21T05:33:37.958Z,39.53
2022-11-21T05:36:05.712Z,38.13
2022-11-21T05:38:33.191Z,61.40
2022-11-21T05:41:00.486Z,37.20
2022-11-21T05:43:46.405Z,41.40
2022-11-21T05:46:16.607Z,39.77
2022-11-21T05:48:44.618Z,38.47
2022-11-21T05:51:12.915Z,35.87
2022-11-21T05:53:41.018Z,38.43
2022-11-21T05:56:10.714Z,37.60
2022-11-21T05:58:38.502Z,36.30
2022-11-21T06:01:06.858Z,32.57
2022-11-21T06:03:36.713Z,28.60
2022-11-21T06:06:04.084Z,33.70
2022-11-21T06:08:33.993Z,33.33
2022-11-21T06:11:02.379Z,34.80
2022-11-21T06:13:29.784Z,30.83
2022-11-21T06:16:02.560Z,35.60
2022-11-21T06:18:32.673Z,37.50
2022-11-21T06:21:05.309Z,36.17
2022-11-21T06:23:32.784Z,39.03
2022-11-21T06:26:01.559Z,40.40
2022-11-21T06:28:33.614Z,31.73
2022-11-21T06:31:08.459Z,33.10
2022-11-21T06:33:36.755Z,30.60
2022-11-21T06:36:05.377Z,40.27
2022-11-21T06:38:33.138Z,38.20
2022-11-21T06:41:12.789Z,38.10
2022-11-21T06:43:40.577Z,40.20
2022-11-21T06:46:07.836Z,33.83
2022-11-21T06:48:36.258Z,43.70
2022-11-21T06:51:29.544Z,41.47
2022-11-21T06:53:59.085Z,44.03
2022-11-21T06:56:28.083Z,39.70
2022-11-21T06:58:57.720Z,40.20
2022-11-21T07:01:25.253Z,36.70
2022-11-21T07:03:52.925Z,32.53
2022-11-21T07:06:20.451Z,38.03
2022-11-21T07:08:52.481Z,34.43
2022-11-21T07:11:27.534Z,37.60
2022-11-21T07:13:54.999Z,35.60
2022-11-21T07:16:22.370Z,34.03
2022-11-21T07:18:49.742Z,38.50
2022-11-21T07:21:17.167Z,35.80
2022-11-21T07:23:44.578Z,38.53
2022-11-21T07:26:12.084Z,36.57
2022-11-21T07:28:39.622Z,46.17
2022-11-21T07:31:12.996Z,34.53
2022-11-21T07:33:41.080Z,40.63
2022-11-21T07:36:08.125Z,41.00
2022-11-21T07:38:35.695Z,39.60
2022-11-21T07:41:03.088Z,44.93
2022-11-21T07:43:30.513Z,44.60
2022-11-21T07:45:57.927Z,42.03
2022-11-21T07:48:25.330Z,46.70
2022-11-21T07:50:52.813Z,46.10
2022-11-21T07:53:20.191Z,56.37
2022-11-21T07:55:47.225Z,51.50
2022-11-21T07:58:16.812Z,48.40
2022-11-21T08:00:44.268Z,54.13
2022-11-21T08:03:13.236Z,61.87
2022-11-21T08:05:42.145Z,54.83
2022-11-21T08:08:10.352Z,49.90
2022-11-21T08:10:42.457Z,68.30
2022-11-21T08:13:10.035Z,53.43
2022-11-21T08:15:37.664Z,66.07
2022-11-21T08:18:12.948Z,57.97
2022-11-21T08:20:40.680Z,54.03
2022-11-21T08:23:08.308Z,53.43
2022-11-21T08:25:37.629Z,54.97
2022-11-21T08:28:05.134Z,56.30
2022-11-21T08:30:33.385Z,63.80
2022-11-21T08:33:01.236Z,56.13
2022-11-21T08:35:29.069Z,55.93
2022-11-21T08:37:57.449Z,58.97
2022-11-21T08:40:26.306Z,70.27
2022-11-21T08:43:01.348Z,52.90
2022-11-21T08:45:28.883Z,58.87
2022-11-21T08:47:56.563Z,59.43
2022-11-21T08:50:24.259Z,58.57
2022-11-21T08:52:51.988Z,70.77
2022-11-21T08:55:19.400Z,66.83
2022-11-21T08:57:46.768Z,65.73
2022-11-21T09:00:14.387Z,74.87
2022-11-21T09:02:41.843Z,69.33
2022-11-21T09:05:09.644Z,64.30
2022-11-21T09:07:37.389Z,67.73
2022-11-21T09:10:04.960Z,65.13
2022-11-21T09:12:32.400Z,58.33
2022-11-21T09:15:18.569Z,63.70
2022-11-21T09:18:03.690Z,70.37
2022-11-21T09:20:32.184Z,64.23
2022-11-21T09:23:04.638Z,57.93
2022-11-21T09:25:32.026Z,59.80
2022-11-21T09:28:01.098Z,57.43
2022-11-21T09:30:28.103Z,50.67
2022-11-21T09:32:55.548Z,46.60
2022-11-21T09:35:22.485Z,50.90
2022-11-21T09:37:51.449Z,52.83
2022-11-21T09:40:19.574Z,56.93
2022-11-21T09:43:24.277Z,56.20
2022-11-21T09:45:58.041Z,54.87
2022-11-21T09:48:36.336Z,55.77
2022-11-21T09:51:12.085Z,62.70
2022-11-21T09:53:51.561Z,52.50
2022-11-21T09:56:23.588Z,56.57
2022-11-21T09:59:35.482Z,62.50
2022-11-21T10:02:08.236Z,62.13
2022-11-21T10:04:35.725Z,57.53
2022-11-21T10:07:03.840Z,56.93
2022-11-21T10:09:36.350Z,57.80
2022-11-21T10:12:37.205Z,56.13
2022-11-21T10:15:34.647Z,54.80
2022-11-21T10:18:02.036Z,51.13
2022-11-21T10:20:41.339Z,51.70
2022-11-21T10:23:29.995Z,46.17
2022-11-21T10:26:21.216Z,51.13
2022-11-21T10:28:48.532Z,55.30
2022-11-21T10:31:16.077Z,48.23
2022-11-21T10:33:43.533Z,46.63
2022-11-21T10:36:34.908Z,46.97
2022-11-21T10:39:14.774Z,57.17
2022-11-21T10:41:55.360Z,44.60
2022-11-21T10:44:48.625Z,45.63
2022-11-21T10:47:27.689Z,47.93
2022-11-21T10:50:19.653Z,36.53
2022-11-21T10:52:53.856Z,39.73
2022-11-21T10:55:21.201Z,40.63
2022-11-21T10:57:52.442Z,37.80
2022-11-21T11:00:23.129Z,42.57
2022-11-21T11:03:16.668Z,36.80
2022-11-21T11:05:55.506Z,37.17
2022-11-21T11:08:22.937Z,34.33
2022-11-21T11:11:07.913Z,40.80
2022-11-21T11:14:10.850Z,34.67
2022-11-21T11:16:47.080Z,26.77
2022-11-21T11:19:14.474Z,36.40
2022-11-21T11:21:41.792Z,31.10
2022-11-21T11:24:11.917Z,29.50
2022-11-21T11:26:49.296Z,24.50
2022-11-21T11:29:22.477Z,23.77
2022-11-21T11:32:20.658Z,32.87
2022-11-21T11:34:57.055Z,31.17
2022-11-21T11:37:26.871Z,27.70
2022-11-21T11:40:21.815Z,27.87
2022-11-21T11:43:08.129Z,29.60
2022-11-21T11:46:05.839Z,22.77
2022-11-21T11:48:56.229Z,26.07
2022-11-21T11:51:32.018Z,25.87
2022-11-21T11:54:12.511Z,25.33
2022-11-21T11:56:42.257Z,25.03
2022-11-21T11:59:28.430Z,23.60
2022-11-21T12:02:20.675Z,32.53
2022-11-21T12:05:01.181Z,27.50
2022-11-21T12:08:40.104Z,24.87
2022-11-21T12:11:24.770Z,24.40
2022-11-21T12:13:55.422Z,27.67
2022-11-21T12:16:25.947Z,26.50
2022-11-21T12:19:02.900Z,23.67
2022-11-21T12:21:30.244Z,24.33
2022-11-21T12:23:58.868Z,28.60
2022-11-21T12:26:33.516Z,26.70
2022-11-21T12:29:12.091Z,27.07
2022-11-21T12:31:57.612Z,22.17
2022-11-21T12:35:11.588Z,25.27
2022-11-21T12:37:47.313Z,24.20
2022-11-21T12:40:34.880Z,21.23
2022-11-21T12:43:19.233Z,22.53
2022-11-21T12:46:20.880Z,23.47
2022-11-21T12:49:23.541Z,24.20
2022-11-21T12:52:20.974Z,24.47
2022-11-21T12:55:09.543Z,21.10
2022-11-21T12:58:01.208Z,19.67
2022-11-21T13:00:49.389Z,23.87
2022-11-21T13:03:33.355Z,22.33
2022-11-21T13:06:02.212Z,23.33
2022-11-21T13:08:31.921Z,19.20
2022-11-21T13:11:30.897Z,23.20
2022-11-21T13:14:15.090Z,27.20
2022-11-21T13:16:48.424Z,26.37
2022-11-21T13:19:49.289Z,24.03
2022-11-21T13:22:37.884Z,24.87
2022-11-21T13:25:13.319Z,26.40
2022-11-21T13:27:44.806Z,23.40
2022-11-21T13:30:12.257Z,21.83
2022-11-21T13:32:46.941Z,26.03
2022-11-21T13:35:19.806Z,20.47
2022-11-21T13:37:50.005Z,21.13
2022-11-21T13:40:31.963Z,21.77
2022-11-21T13:43:32.650Z,21.20
2022-11-21T13:46:00.779Z,22.20
2022-11-21T13:48:30.857Z,16.67
2022-11-21T13:51:17.533Z,21.77
2022-11-21T13:53:59.549Z,19.63
2022-11-21T13:56:51.355Z,19.43
2022-11-21T13:59:40.583Z,18.63
2022-11-21T14:02:38.164Z,18.27
2022-11-21T14:05:34.054Z,26.00
2022-11-21T14:08:24.363Z,19.43
2022-11-21T14:10:53.420Z,19.13
2022-11-21T14:13:33.088Z,18.43
2022-11-21T14:16:18.917Z,20.23
2022-11-21T14:18:47.199Z,20.33
2022-11-21T14:21:27.043Z,20.40
2022-11-21T14:24:00.238Z,24.07
2022-11-21T14:26:30.272Z,23.77
2022-11-21T14:29:22.734Z,21.43
2022-11-21T14:31:50.760Z,20.93
2022-11-21T14:34:26.791Z,22.90
2022-11-21T14:36:57.586Z,18.53
2022-11-21T14:39:37.722Z,21.43
2022-11-21T14:42:15.047Z,21.83
2022-11-21T14:44:42.506Z,21.73
2022-11-21T14:47:25.237Z,21.77
2022-11-21T14:49:55.530Z,20.00
2022-11-21T14:52:31.706Z,21.67
2022-11-21T14:57:52.748Z,25.40
2022-11-21T15:00:58.132Z,25.30
2022-11-21T15:03:24.251Z,28.37
2022-11-21T15:06:06.406Z,25.77
2022-11-21T15:09:52.757Z,23.33
2022-11-21T15:11:26.139Z,22.07
2022-11-21T15:14:15.479Z,25.63
2022-11-21T15:16:47.348Z,24.90
2022-11-21T15:19:21.153Z,25.47
2022-11-21T15:21:50.000Z,28.80
2022-11-21T15:24:37.523Z,28.67
2022-11-21T15:27:28.766Z,26.23
2022-11-21T15:30:11.209Z,29.90
2022-11-21T15:33:04.840Z,30.00
2022-11-21T15:35:37.503Z,31.50
2022-11-21T15:38:25.798Z,29.27
2022-11-21T15:41:07.063Z,35.90
2022-11-21T15:43:45.876Z,32.37
2022-11-21T15:46:24.490Z,29.37
2022-11-21T15:48:58.371Z,31.17
2022-11-21T15:51:59.668Z,31.57
2022-11-21T15:54:19.526Z,30.50
2022-11-21T15:56:47.492Z,28.30
2022-11-21T15:59:15.844Z,27.53
2022-11-21T16:01:43.480Z,29.33
2022-11-21T16:04:12.430Z,28.77
2022-11-21T16:06:40.094Z,34.17
2022-11-21T16:09:07.488Z,29.20
2022-11-21T16:11:54.959Z,27.27
2022-11-21T16:14:21.943Z,30.70
2022-11-21T16:16:49.378Z,29.27
2022-11-21T16:19:17.897Z,32.83
2022-11-21T16:21:45.485Z,39.77
2022-11-21T16:24:13.141Z,28.87
2022-11-21T16:26:40.920Z,35.83
2022-11-21T16:29:10.567Z,37.37
2022-11-21T16:31:37.940Z,41.83
2022-11-21T16:34:05.477Z,35.83
2022-11-21T16:36:32.709Z,43.80
2022-11-21T16:39:07.633Z,39.33
2022-11-21T16:41:36.536Z,38.30
2022-11-21T16:44:04.002Z,37.57
2022-11-21T16:46:30.984Z,41.73
2022-11-21T16:49:00.396Z,38.40
2022-11-21T16:51:28.175Z,35.93
2022-11-21T16:53:55.785Z,38.27
2022-11-21T16:56:23.467Z,37.27
2022-11-21T16:58:51.180Z,43.40
2022-11-21T17:01:21.141Z,39.23
2022-11-21T17:03:49.379Z,39.13
2022-11-21T17:06:19.665Z,41.20
2022-11-21T17:08:47.460Z,45.10
2022-11-21T17:11:20.368Z,38.97
2022-11-21T17:13:49.380Z,39.57
2022-11-21T17:16:18.958Z,44.97
2022-11-21T17:18:46.601Z,42.20
2022-11-21T17:21:16.357Z,44.33
2022-11-21T17:23:48.200Z,38.97
2022-11-21T17:26:18.887Z,41.37
2022-11-21T17:28:52.256Z,42.83
2022-11-21T17:31:21.750Z,41.50
2022-11-21T17:33:52.309Z,42.80
2022-11-21T17:36:22.083Z,42.47
2022-11-21T17:38:49.862Z,44.00
2022-11-21T17:41:18.935Z,39.77
2022-11-21T17:43:47.400Z,51.87
2022-11-21T17:46:17.711Z,49.93
2022-11-21T17:48:52.907Z,51.77
2022-11-21T17:51:24.311Z,44.07
2022-11-21T17:53:52.163Z,50.80
2022-11-21T17:56:24.634Z,50.43
2022-11-21T17:58:52.330Z,46.23
2022-11-21T18:01:20.332Z,43.77
2022-11-21T18:04:02.732Z,45.50
2022-11-21T18:06:34.170Z,55.33
2022-11-21T18:09:01.674Z,36.77
2022-11-21T18:11:36.049Z,42.10
2022-11-21T18:14:08.836Z,46.67
2022-11-21T18:16:36.408Z,46.10
2022-11-21T18:19:04.043Z,45.40
2022-11-21T18:21:35.378Z,46.87
2022-11-21T18:24:02.979Z,42.07
2022-11-21T18:26:33.681Z,49.10
2022-11-21T18:29:28.547Z,43.93
2022-11-21T18:31:50.657Z,57.33
2022-11-21T18:34:18.512Z,42.47
2022-11-21T18:36:47.686Z,50.47
2022-11-21T18:39:15.849Z,46.00
2022-11-21T18:41:44.052Z,47.93
2022-11-21T18:44:17.034Z,51.53
2022-11-21T18:46:48.160Z,43.87
2022-11-21T18:49:15.132Z,50.03
2022-11-21T18:51:42.558Z,48.30
2022-11-21T18:54:11.081Z,43.73
2022-11-21T18:56:39.436Z,46.60
2022-11-21T18:59:07.104Z,44.03
2022-11-21T19:01:36.091Z,47.10
2022-11-21T19:04:03.906Z,43.67
2022-11-21T19:06:31.379Z,51.87
2022-11-21T19:08:59.038Z,45.77
2022-11-21T19:11:30.091Z,47.43
2022-11-21T19:13:58.125Z,44.67
2022-11-21T19:16:26.975Z,44.97
2022-11-21T19:19:26.465Z,46.97
2022-11-21T19:21:42.691Z,45.10
2022-11-21T19:24:14.704Z,44.83
2022-11-21T19:26:42.742Z,43.20
2022-11-21T19:29:10.526Z,43.23
2022-11-21T19:31:44.837Z,47.47
2022-11-21T19:34:13.814Z,51.70
2022-11-21T19:36:41.258Z,41.47
2022-11-21T19:39:09.007Z,48.03
2022-11-21T19:41:36.570Z,49.07
2022-11-21T19:44:04.372Z,46.03
2022-11-21T19:46:33.618Z,41.63
2022-11-21T19:49:02.039Z,45.23
2022-11-21T19:51:34.377Z,51.57
2022-11-21T19:54:06.380Z,54.07
2022-11-21T19:56:33.960Z,43.43
2022-11-21T19:59:01.724Z,48.33
2022-11-21T20:01:30.677Z,50.80
2022-11-21T20:04:04.009Z,41.60
2022-11-21T20:06:49.422Z,54.47
2022-11-21T20:09:19.841Z,44.97
2022-11-21T20:11:49.007Z,59.83
2022-11-21T20:14:21.392Z,42.93
2022-11-21T20:16:50.065Z,48.07
2022-11-21T20:19:19.187Z,49.67
2022-11-21T20:21:46.808Z,53.40
2022-11-21T20:24:14.570Z,49.07
2022-11-21T20:26:42.362Z,48.40
2022-11-21T20:29:11.704Z,49.57
2022-11-21T20:31:39.169Z,49.73
2022-11-21T20:34:10.072Z,50.53
2022-11-21T20:36:37.677Z,48.50
2022-11-21T20:39:07.151Z,54.80
2022-11-21T20:41:36.110Z,125.97
2022-11-21T20:46:53.355Z,99.63
2022-11-21T20:49:20.671Z,106.37
2022-11-21T20:53:36.582Z,49.13
2022-11-21T20:54:35.885Z,53.73
2022-11-21T20:57:03.218Z,46.80
2022-11-21T20:59:30.795Z,51.73
2022-11-21T21:01:58.255Z,41.23
2022-11-21T21:04:25.623Z,60.30
2022-11-21T21:06:52.945Z,44.80
2022-11-21T21:09:20.320Z,46.00
2022-11-21T21:11:52.480Z,45.08
2022-11-21T21:14:20.551Z,42.87
2022-11-21T21:16:47.954Z,44.37
2022-11-21T21:19:15.322Z,42.73
2022-11-21T21:21:42.682Z,39.10
2022-11-21T21:24:11.331Z,39.17
2022-11-21T21:26:42.959Z,39.23
2022-11-21T21:29:13.104Z,34.97
2022-11-21T21:31:43.866Z,35.30
2022-11-21T21:34:14.559Z,36.60
2022-11-21T21:36:41.942Z,37.30
2022-11-21T21:39:09.253Z,34.33
2022-11-21T21:41:39.830Z,41.25
2022-11-21T21:44:07.461Z,41.60
2022-11-21T21:46:34.837Z,32.57
2022-11-21T21:49:02.273Z,43.33
2022-11-21T21:51:31.090Z,34.33
2022-11-21T21:53:59.646Z,35.90
2022-11-21T21:56:28.241Z,33.67
2022-11-21T21:58:57.078Z,33.77
2022-11-21T22:01:29.407Z,37.07
2022-11-21T22:03:58.373Z,39.43
2022-11-21T22:06:25.970Z,42.77
2022-11-21T22:08:54.588Z,36.43
2022-11-21T22:11:21.967Z,37.23
2022-11-21T22:13:53.090Z,34.63
2022-11-21T22:16:20.553Z,32.07
2022-11-21T22:18:48.017Z,35.27
2022-11-21T22:21:15.431Z,38.08
2022-11-21T22:23:56.415Z,36.80
2022-11-21T22:26:30.210Z,36.83
2022-11-21T22:28:57.628Z,33.90
2022-11-21T22:31:25.013Z,33.03
2022-11-21T22:33:52.515Z,35.07
2022-11-21T22:36:20.119Z,34.07
2022-11-21T22:38:47.574Z,33.40
2022-11-21T22:41:20.404Z,35.13
2022-11-21T22:43:55.841Z,38.05
2022-11-21T22:46:24.020Z,42.90
2022-11-21T22:48:51.663Z,32.23
2022-11-21T22:51:21.464Z,38.80
2022-11-21T22:53:49.378Z,35.03
2022-11-21T22:56:18.633Z,34.97
2022-11-21T22:58:46.526Z,38.97
2022-11-21T23:01:19.138Z,36.43
2022-11-21T23:03:47.407Z,37.50
2022-11-21T23:06:19.698Z,35.30
2022-11-21T23:08:47.601Z,38.43
2022-11-21T23:11:19.872Z,38.70
2022-11-21T23:13:47.926Z,35.87
2022-11-21T23:16:15.576Z,37.23
2022-11-21T23:18:43.839Z,41.90
2022-11-21T23:21:12.617Z,39.57
2022-11-21T23:23:40.373Z,37.73
2022-11-21T23:26:08.138Z,38.37
2022-11-21T23:28:35.576Z,36.40
2022-11-21T23:31:03.487Z,42.90
2022-11-21T23:33:30.900Z,40.40
2022-11-21T23:35:58.278Z,37.00
2022-11-21T23:38:25.930Z,43.17
2022-11-21T23:40:53.480Z,40.13
2022-11-21T23:43:20.860Z,37.97
2022-11-21T23:45:52.015Z,41.53
2022-11-21T23:48:19.986Z,40.97
2022-11-21T23:50:48.150Z,40.87
2022-11-21T23:53:15.742Z,41.17
2022-11-21T23:55:43.918Z,36.27
2022-11-21T23:58:11.590Z,37.43
